Terminal Aerodrome Forecast
Issued by NWS Corpus Christi, TX

Home | Current Version | Previous Version | Text Only | Print | Product List | Glossary On
Versions: 1 2 3 4 5 6 7 8 9 10 11 12 13 14 15 16 17 18
000
FTUS44 KCRP 201132
TAFVCT
TAF
KVCT 201132Z 2012/2112 12006KT P6SM VCSH SCT019 BKN025
     FM201400 14012KT P6SM VCSH BKN035
     FM201800 14015G22KT P6SM BKN035
     FM202300 13011KT P6SM BKN035
     FM210400 13005KT 6SM BR BKN020=

USA.gov is the U.S. government's official web portal to all federal, state and local government web resources and services.